Time;durP1;ratioP1;P1;durP2;ratioP2;P2;SDS_P1;SDS_P2;PMS_P1;PMS_P2;Temp;Humidity;BMP_temperature;BMP_pressure;BME280_temperature;BME280_humidity;BME280_pressure;Samples;Min_cycle;Max_cycle;Signal;HPM_P1;HPM_P2
2022/04/14 00:00:24;;;;;;;17.97;15.43;;;;;;;;;;5123726;27;20227;-75
2022/04/14 00:02:51;;;;;;;14.80;12.03;;;;;;;;;;5116883;28;20274;-75
2022/04/14 00:05:20;;;;;;;9.13;8.23;;;;;;;;;;5120318;27;20296;-75
2022/04/14 00:07:47;;;;;;;10.83;7.10;;;;;;;;;;5119228;27;20205;-75
2022/04/14 00:10:15;;;;;;;7.97;7.03;;;;;;;;;;5115289;28;20253;-75
2022/04/14 00:12:45;;;;;;;10.60;7.30;;;;;;;;;;5120796;28;20300;-75
2022/04/14 00:15:12;;;;;;;7.53;6.83;;;;;;;;;;5122398;28;20196;-75
2022/04/14 00:17:40;;;;;;;8.67;7.53;;;;;;;;;;5116672;28;20287;-75
2022/04/14 00:20:08;;;;;;;8.47;7.33;;;;;;;;;;5117624;28;20767;-75
2022/04/14 00:22:36;;;;;;;9.63;7.53;;;;;;;;;;5115603;28;20223;-74
2022/04/14 00:25:03;;;;;;;9.53;7.70;;;;;;;;;;5119478;28;20268;-75
2022/04/14 00:27:30;;;;;;;10.13;7.13;;;;;;;;;;5113938;28;20221;-74
2022/04/14 00:29:59;;;;;;;10.23;7.10;;;;;;;;;;5121140;28;20282;-75
2022/04/14 00:32:26;;;;;;;8.13;7.33;;;;;;;;;;5127622;28;20300;-75
2022/04/14 00:34:53;;;;;;;10.10;7.73;;;;;;;;;;5121240;28;20230;-75
2022/04/14 00:37:20;;;;;;;9.13;7.70;;;;;;;;;;5129035;28;20242;-75
2022/04/14 00:39:49;;;;;;;9.53;7.73;;;;;;;;;;5112690;28;20204;-75
2022/04/14 00:42:16;;;;;;;7.87;7.07;;;;;;;;;;5132263;28;20196;-75
2022/04/14 00:44:44;;;;;;;8.20;7.30;;;;;;;;;;5119384;28;20281;-74
2022/04/14 00:47:12;;;;;;;9.43;6.97;;;;;;;;;;5110853;28;20189;-75
2022/04/14 00:49:40;;;;;;;8.37;6.80;;;;;;;;;;5116181;28;20646;-74
2022/04/14 00:52:07;;;;;;;9.10;6.97;;;;;;;;;;5125764;28;20312;-75
2022/04/14 00:54:35;;;;;;;7.63;6.83;;;;;;;;;;5122512;28;20225;-74
2022/04/14 00:57:03;;;;;;;8.63;6.40;;;;;;;;;;5122612;27;20193;-75
2022/04/14 00:59:31;;;;;;;12.63;6.80;;;;;;;;;;5129398;27;20312;-75
2022/04/14 01:01:58;;;;;;;7.60;6.70;;;;;;;;;;5117505;27;20255;-74
2022/04/14 01:04:28;;;;;;;8.90;7.10;;;;;;;;;;5119177;27;20611;-75
2022/04/14 01:06:55;;;;;;;9.10;7.47;;;;;;;;;;5124240;27;20271;-75
2022/04/14 01:09:23;;;;;;;10.13;7.50;;;;;;;;;;5121929;27;20254;-74
2022/04/14 01:11:53;;;;;;;8.57;7.50;;;;;;;;;;5134714;27;20320;-74
2022/04/14 01:14:21;;;;;;;9.90;7.93;;;;;;;;;;5118059;27;20295;-75
2022/04/14 01:16:48;;;;;;;8.03;7.17;;;;;;;;;;5121193;27;20189;-74
2022/04/14 01:19:16;;;;;;;7.90;7.07;;;;;;;;;;5134379;27;20206;-75
2022/04/14 01:21:47;;;;;;;9.80;7.43;;;;;;;;;;5124238;27;20217;-74
2022/04/14 01:24:16;;;;;;;7.27;6.57;;;;;;;;;;5135672;27;20673;-74
2022/04/14 01:26:43;;;;;;;9.10;6.70;;;;;;;;;;5119186;27;20224;-74
2022/04/14 01:29:20;;;;;;;9.63;6.23;;;;;;;;;;5129993;27;20202;-73
2022/04/14 01:31:47;;;;;;;6.93;6.23;;;;;;;;;;5119109;27;20220;-75
2022/04/14 01:34:14;;;;;;;7.20;6.10;;;;;;;;;;5117241;27;20297;-74
2022/04/14 01:36:41;;;;;;;8.03;6.57;;;;;;;;;;5115888;27;20194;-75
2022/04/14 01:39:10;;;;;;;7.43;6.33;;;;;;;;;;5115817;27;20288;-75
2022/04/14 01:41:38;;;;;;;6.83;6.00;;;;;;;;;;5123784;27;20193;-74
2022/04/14 01:44:06;;;;;;;8.40;6.17;;;;;;;;;;5115080;27;20197;-74
2022/04/14 01:46:34;;;;;;;6.43;5.80;;;;;;;;;;5129797;27;20224;-74
2022/04/14 01:49:01;;;;;;;7.70;6.40;;;;;;;;;;5130377;27;20295;-74
2022/04/14 01:51:28;;;;;;;10.03;6.93;;;;;;;;;;5117561;27;20201;-74
2022/04/14 01:53:56;;;;;;;7.90;7.07;;;;;;;;;;5122212;27;20274;-74
2022/04/14 01:56:23;;;;;;;8.27;7.33;;;;;;;;;;5120026;27;20203;-74
2022/04/14 01:58:52;;;;;;;9.03;8.13;;;;;;;;;;5116343;27;20518;-75
2022/04/14 02:01:20;;;;;;;10.53;8.73;;;;;;;;;;5119223;27;20209;-74
2022/04/14 02:03:47;;;;;;;9.57;8.57;;;;;;;;;;5120472;27;20373;-75
2022/04/14 02:06:14;;;;;;;12.07;8.50;;;;;;;;;;5119882;27;20198;-74
2022/04/14 02:08:42;;;;;;;9.60;8.40;;;;;;;;;;5114950;27;20676;-74
2022/04/14 02:11:10;;;;;;;9.50;8.43;;;;;;;;;;5127165;27;20316;-75
2022/04/14 02:13:37;;;;;;;9.83;8.30;;;;;;;;;;5133378;27;20306;-75
2022/04/14 02:16:06;;;;;;;11.27;8.60;;;;;;;;;;5113654;28;20238;-74
2022/04/14 02:18:34;;;;;;;8.87;7.97;;;;;;;;;;5113917;27;20622;-78
2022/04/14 02:21:01;;;;;;;10.53;7.97;;;;;;;;;;5128582;27;20668;-79
2022/04/14 02:23:28;;;;;;;13.60;8.10;;;;;;;;;;5134608;27;20305;-78
2022/04/14 02:25:56;;;;;;;9.60;7.87;;;;;;;;;;5114805;27;20648;-78
2022/04/14 02:28:23;;;;;;;9.90;7.83;;;;;;;;;;5113843;27;20643;-79
2022/04/14 02:30:50;;;;;;;9.53;7.70;;;;;;;;;;5114215;27;20264;-79
2022/04/14 02:33:19;;;;;;;12.00;8.80;;;;;;;;;;5130353;27;20304;-78
2022/04/14 02:35:46;;;;;;;10.47;8.37;;;;;;;;;;5117143;27;20267;-78
2022/04/14 02:38:13;;;;;;;12.93;8.60;;;;;;;;;;5119097;27;20199;-79
2022/04/14 02:40:41;;;;;;;9.47;8.47;;;;;;;;;;5125366;27;20189;-79
2022/04/14 02:43:08;;;;;;;11.43;8.67;;;;;;;;;;5134558;27;20236;-79
2022/04/14 02:45:35;;;;;;;10.83;8.47;;;;;;;;;;5133633;27;20279;-78
2022/04/14 02:48:02;;;;;;;9.23;8.00;;;;;;;;;;5114703;27;20684;-79
2022/04/14 02:50:31;;;;;;;9.47;8.57;;;;;;;;;;5113514;27;20276;-78
2022/04/14 02:52:58;;;;;;;10.17;8.53;;;;;;;;;;5118480;27;20771;-79
2022/04/14 02:55:25;;;;;;;10.13;8.67;;;;;;;;;;5128001;27;20220;-79
2022/04/14 02:57:52;;;;;;;13.83;8.57;;;;;;;;;;5121088;27;20276;-78
2022/04/14 03:00:20;;;;;;;11.30;9.07;;;;;;;;;;5126913;27;20248;-78
2022/04/14 03:02:47;;;;;;;10.73;8.70;;;;;;;;;;5122821;27;20276;-79
2022/04/14 03:05:14;;;;;;;10.43;8.57;;;;;;;;;;5131278;27;20690;-79
2022/04/14 03:07:43;;;;;;;9.10;8.17;;;;;;;;;;5119148;27;20219;-79
2022/04/14 03:10:10;;;;;;;10.90;7.70;;;;;;;;;;5132415;27;20728;-79
2022/04/14 03:12:40;;;;;;;9.23;7.50;;;;;;;;;;5124358;27;20260;-78
2022/04/14 03:15:08;;;;;;;7.60;6.77;;;;;;;;;;5129626;27;20283;-78
2022/04/14 03:17:35;;;;;;;8.53;7.57;;;;;;;;;;5115603;27;20288;-78
2022/04/14 03:20:03;;;;;;;9.10;8.20;;;;;;;;;;5118061;27;20661;-79
2022/04/14 03:22:33;;;;;;;9.00;8.10;;;;;;;;;;5124896;27;20680;-79
2022/04/14 03:25:02;;;;;;;10.63;7.83;;;;;;;;;;5126693;27;20874;-79
2022/04/14 03:27:29;;;;;;;11.03;8.00;;;;;;;;;;5126858;27;20292;-78
2022/04/14 03:29:57;;;;;;;9.47;8.20;;;;;;;;;;5121252;27;20276;-79
2022/04/14 03:32:24;;;;;;;9.33;7.93;;;;;;;;;;5112663;28;20223;-79
2022/04/14 03:34:51;;;;;;;10.53;7.97;;;;;;;;;;5121556;27;20291;-79
2022/04/14 03:37:19;;;;;;;8.30;7.50;;;;;;;;;;5112814;27;20193;-78
2022/04/14 03:39:46;;;;;;;9.03;8.13;;;;;;;;;;5121096;27;20293;-79
2022/04/14 03:42:14;;;;;;;9.93;8.60;;;;;;;;;;5133605;27;20580;-78
2022/04/14 03:44:41;;;;;;;9.87;8.53;;;;;;;;;;5132434;27;20288;-78
2022/04/14 03:47:09;;;;;;;9.80;8.80;;;;;;;;;;5132562;27;20204;-78
2022/04/14 03:49:36;;;;;;;10.10;8.53;;;;;;;;;;5122716;27;20197;-79
2022/04/14 03:52:04;;;;;;;10.50;7.97;;;;;;;;;;5123926;27;20292;-78
2022/04/14 03:54:31;;;;;;;11.53;8.43;;;;;;;;;;5115311;27;20288;-78
2022/04/14 03:56:58;;;;;;;9.77;8.53;;;;;;;;;;5129623;27;20299;-78
2022/04/14 03:59:27;;;;;;;9.13;7.40;;;;;;;;;;5122378;27;20312;-78
2022/04/14 04:01:54;;;;;;;9.07;8.10;;;;;;;;;;5117880;28;20673;-78
2022/04/14 04:04:21;;;;;;;8.70;7.80;;;;;;;;;;5131843;27;20658;-78
2022/04/14 04:06:48;;;;;;;8.87;7.70;;;;;;;;;;5119277;27;20626;-79
2022/04/14 04:09:16;;;;;;;11.33;8.57;;;;;;;;;;5127362;27;20225;-78
2022/04/14 04:11:43;;;;;;;10.40;8.47;;;;;;;;;;5132567;28;20774;-78
2022/04/14 04:14:10;;;;;;;9.87;8.33;;;;;;;;;;5130693;28;20212;-78
2022/04/14 04:16:39;;;;;;;9.47;8.47;;;;;;;;;;5122016;28;20680;-78
2022/04/14 04:19:06;;;;;;;9.57;8.30;;;;;;;;;;5113698;28;20201;-78
2022/04/14 04:21:33;;;;;;;10.37;8.53;;;;;;;;;;5112915;28;20632;-78
2022/04/14 04:24:00;;;;;;;9.40;8.50;;;;;;;;;;5119953;28;20278;-78
2022/04/14 04:26:28;;;;;;;9.80;8.53;;;;;;;;;;5132344;28;20239;-78
2022/04/14 04:28:55;;;;;;;9.77;8.57;;;;;;;;;;5125790;28;20209;-79
2022/04/14 04:31:22;;;;;;;9.40;7.73;;;;;;;;;;5112239;28;20284;-78
2022/04/14 04:33:51;;;;;;;9.57;8.13;;;;;;;;;;5119673;27;20304;-78
2022/04/14 04:36:18;;;;;;;9.27;8.20;;;;;;;;;;5123855;27;20206;-78
2022/04/14 04:38:45;;;;;;;10.57;7.97;;;;;;;;;;5129804;27;20291;-78
2022/04/14 04:41:13;;;;;;;9.13;8.10;;;;;;;;;;5116048;28;20696;-78
2022/04/14 04:43:40;;;;;;;9.73;7.80;;;;;;;;;;5116426;27;20228;-78
2022/04/14 04:46:08;;;;;;;9.13;8.23;;;;;;;;;;5115174;27;20290;-78
2022/04/14 04:48:35;;;;;;;12.13;8.30;;;;;;;;;;5119708;27;20726;-78
2022/04/14 04:51:04;;;;;;;10.13;9.07;;;;;;;;;;5127193;27;20292;-78
2022/04/14 04:53:31;;;;;;;10.80;8.70;;;;;;;;;;5120925;27;20311;-78
2022/04/14 04:55:58;;;;;;;11.20;9.50;;;;;;;;;;5131977;27;20291;-78
2022/04/14 04:58:25;;;;;;;11.83;9.00;;;;;;;;;;5118186;27;20252;-78
2022/04/14 05:00:53;;;;;;;11.80;9.40;;;;;;;;;;5115994;27;20207;-78
2022/04/14 05:03:21;;;;;;;11.30;9.17;;;;;;;;;;5114639;27;20652;-78
2022/04/14 05:05:49;;;;;;;11.03;9.03;;;;;;;;;;5122041;27;20196;-77
2022/04/14 05:08:17;;;;;;;10.50;9.40;;;;;;;;;;5127268;27;20195;-78
2022/04/14 05:10:44;;;;;;;10.87;9.70;;;;;;;;;;5134714;27;20281;-78
2022/04/14 05:13:12;;;;;;;10.67;9.53;;;;;;;;;;5128079;27;20679;-78
2022/04/14 05:15:39;;;;;;;10.90;9.37;;;;;;;;;;5120680;27;20292;-78
2022/04/14 05:18:06;;;;;;;12.37;9.57;;;;;;;;;;5127493;27;20610;-78
2022/04/14 05:20:34;;;;;;;11.60;8.93;;;;;;;;;;5120097;27;20591;-79
2022/04/14 05:23:02;;;;;;;9.93;8.70;;;;;;;;;;5118309;27;20194;-76
2022/04/14 05:25:30;;;;;;;10.63;9.30;;;;;;;;;;5122339;27;20610;-78
2022/04/14 05:27:57;;;;;;;11.70;9.60;;;;;;;;;;5124285;27;20295;-77
2022/04/14 05:30:25;;;;;;;12.57;10.13;;;;;;;;;;5115327;28;20235;-77
2022/04/14 05:32:52;;;;;;;11.90;10.40;;;;;;;;;;5119905;27;20673;-77
2022/04/14 05:35:21;;;;;;;10.90;9.80;;;;;;;;;;5125475;27;20231;-78
2022/04/14 05:37:48;;;;;;;9.70;8.70;;;;;;;;;;5119986;27;20690;-78
2022/04/14 05:40:15;;;;;;;8.83;7.93;;;;;;;;;;5128619;27;20206;-79
2022/04/14 05:42:46;;;;;;;8.10;7.30;;;;;;;;;;5120578;27;20675;-78
2022/04/14 05:45:13;;;;;;;8.10;6.87;;;;;;;;;;5129535;27;20196;-78
2022/04/14 05:47:41;;;;;;;9.97;6.83;;;;;;;;;;5121589;27;20657;-77
2022/04/14 05:50:08;;;;;;;8.00;7.20;;;;;;;;;;5119424;27;20330;-78
2022/04/14 05:52:36;;;;;;;9.50;6.80;;;;;;;;;;5115612;27;20195;-78
2022/04/14 05:55:03;;;;;;;7.80;6.63;;;;;;;;;;5114774;28;20319;-77
2022/04/14 05:57:30;;;;;;;8.70;7.33;;;;;;;;;;5126290;27;20623;-77
2022/04/14 05:59:59;;;;;;;10.00;7.33;;;;;;;;;;5117486;27;20257;-77
2022/04/14 06:02:27;;;;;;;8.13;7.03;;;;;;;;;;5117520;27;20545;-79
2022/04/14 06:04:54;;;;;;;7.93;6.97;;;;;;;;;;5115413;27;20198;-79
2022/04/14 06:07:21;;;;;;;9.83;6.70;;;;;;;;;;5115097;27;20698;-79
2022/04/14 06:09:48;;;;;;;8.10;6.10;;;;;;;;;;5116561;27;20549;-79
2022/04/14 06:12:15;;;;;;;9.33;6.77;;;;;;;;;;5113581;28;20233;-79
2022/04/14 06:14:43;;;;;;;9.37;6.50;;;;;;;;;;5116369;27;20309;-79
2022/04/14 06:17:11;;;;;;;9.87;6.23;;;;;;;;;;5116778;27;20239;-80
2022/04/14 06:19:39;;;;;;;8.43;6.10;;;;;;;;;;5113571;27;20253;-79
2022/04/14 06:22:06;;;;;;;9.90;5.90;;;;;;;;;;5114437;27;20197;-79
2022/04/14 06:24:33;;;;;;;7.07;6.13;;;;;;;;;;5122468;27;20276;-79
2022/04/14 06:27:00;;;;;;;6.83;6.07;;;;;;;;;;5126632;27;20283;-79
2022/04/14 06:29:28;;;;;;;7.97;6.40;;;;;;;;;;5128400;27;20280;-79
2022/04/14 06:31:55;;;;;;;6.10;5.50;;;;;;;;;;5122648;27;20229;-80
2022/04/14 06:34:23;;;;;;;7.53;5.10;;;;;;;;;;5115618;27;20750;-80
2022/04/14 06:36:51;;;;;;;7.10;4.57;;;;;;;;;;5115465;27;20278;-79
2022/04/14 06:39:18;;;;;;;6.27;4.77;;;;;;;;;;5119211;27;21956;-80
2022/04/14 06:41:55;;;;;;;5.20;4.60;;;;;;;;;;5124380;27;20636;-81
2022/04/14 06:44:22;;;;;;;5.37;4.53;;;;;;;;;;5120894;27;20189;-79
2022/04/14 06:46:49;;;;;;;6.53;4.80;;;;;;;;;;5112697;27;20222;-80
2022/04/14 06:49:16;;;;;;;4.93;4.53;;;;;;;;;;5117511;27;20280;-80
2022/04/14 06:51:46;;;;;;;6.53;4.30;;;;;;;;;;5113150;27;20681;-80
2022/04/14 06:54:14;;;;;;;5.25;4.50;;;;;;;;;;5128501;27;20245;-80
2022/04/14 06:56:41;;;;;;;5.13;4.10;;;;;;;;;;5125396;27;20198;-81
2022/04/14 06:59:08;;;;;;;4.65;4.25;;;;;;;;;;5126087;27;20252;-80
2022/04/14 07:01:35;;;;;;;5.57;4.72;;;;;;;;;;5117122;27;20197;-80
2022/04/14 07:04:02;;;;;;;5.50;4.07;;;;;;;;;;5120309;27;20225;-80
2022/04/14 07:06:30;;;;;;;5.05;4.55;;;;;;;;;;5115471;27;20240;-81
2022/04/14 07:08:58;;;;;;;6.50;4.53;;;;;;;;;;5117500;27;20264;-81
2022/04/14 07:11:25;;;;;;;6.13;4.47;;;;;;;;;;5117504;27;20304;-81
2022/04/14 07:13:52;;;;;;;6.43;4.80;;;;;;;;;;5121343;27;20298;-81
2022/04/14 07:16:20;;;;;;;7.80;4.82;;;;;;;;;;5130537;27;20220;-81
2022/04/14 07:18:47;;;;;;;7.43;4.45;;;;;;;;;;5131707;27;20672;-81
2022/04/14 07:21:14;;;;;;;5.72;4.30;;;;;;;;;;5126241;27;20707;-81
2022/04/14 07:23:41;;;;;;;6.95;4.50;;;;;;;;;;5115945;27;20225;-81
2022/04/14 07:26:10;;;;;;;4.68;4.15;;;;;;;;;;5122916;27;20202;-81
2022/04/14 07:28:37;;;;;;;7.03;4.57;;;;;;;;;;5132734;27;20280;-81
2022/04/14 07:31:04;;;;;;;4.97;4.47;;;;;;;;;;5122355;27;20691;-81
2022/04/14 07:33:32;;;;;;;6.78;4.40;;;;;;;;;;5120722;27;20557;-81
2022/04/14 07:35:59;;;;;;;5.80;4.55;;;;;;;;;;5127718;27;20570;-81
2022/04/14 07:38:27;;;;;;;5.93;4.57;;;;;;;;;;5120442;27;20740;-81
2022/04/14 07:40:56;;;;;;;5.65;3.92;;;;;;;;;;5111613;27;20213;-80
2022/04/14 07:43:24;;;;;;;5.25;4.32;;;;;;;;;;5124557;27;20202;-81
2022/04/14 07:45:51;;;;;;;5.80;4.05;;;;;;;;;;5093316;28;20205;-81
2022/04/14 07:48:21;;;;;;;5.63;4.10;;;;;;;;;;5122284;27;20324;-80
2022/04/14 07:50:48;;;;;;;5.82;4.35;;;;;;;;;;5116445;27;20255;-81
2022/04/14 07:53:15;;;;;;;5.22;3.97;;;;;;;;;;5130527;27;20236;-81
2022/04/14 07:55:43;;;;;;;5.45;4.38;;;;;;;;;;5121063;27;20295;-80
2022/04/14 07:58:10;;;;;;;4.95;3.97;;;;;;;;;;5124977;27;20209;-81
2022/04/14 08:00:40;;;;;;;5.40;4.30;;;;;;;;;;5131286;27;20258;-81
2022/04/14 08:03:07;;;;;;;5.50;4.20;;;;;;;;;;5130976;27;20420;-80
2022/04/14 08:05:36;;;;;;;5.10;4.40;;;;;;;;;;5132691;27;20550;-80
2022/04/14 08:08:03;;;;;;;4.82;4.18;;;;;;;;;;5121222;27;20201;-80
2022/04/14 08:10:30;;;;;;;6.13;4.43;;;;;;;;;;5121582;27;20290;-81
2022/04/14 08:12:58;;;;;;;5.95;4.28;;;;;;;;;;5131939;28;20264;-81
2022/04/14 08:15:25;;;;;;;7.10;4.25;;;;;;;;;;5132814;28;20228;-81
2022/04/14 08:17:54;;;;;;;5.97;4.53;;;;;;;;;;5112602;28;20236;-80
2022/04/14 08:20:21;;;;;;;5.72;4.13;;;;;;;;;;5112141;28;20665;-81
2022/04/14 08:22:49;;;;;;;6.00;4.25;;;;;;;;;;5112479;28;20289;-80
2022/04/14 08:25:18;;;;;;;7.80;4.57;;;;;;;;;;5120451;28;20197;-80
2022/04/14 08:27:46;;;;;;;6.28;4.22;;;;;;;;;;5128908;28;20640;-82
2022/04/14 08:30:14;;;;;;;6.75;4.65;;;;;;;;;;5127443;28;20194;-81
2022/04/14 08:32:41;;;;;;;6.55;3.63;;;;;;;;;;5124099;28;20611;-81
2022/04/14 08:35:10;;;;;;;8.73;4.55;;;;;;;;;;5121422;28;20340;-81
2022/04/14 08:37:37;;;;;;;7.07;4.30;;;;;;;;;;5116210;28;20276;-81
2022/04/14 08:40:07;;;;;;;6.38;4.50;;;;;;;;;;5111994;28;20699;-80
2022/04/14 08:42:39;;;;;;;7.55;4.18;;;;;;;;;;5111183;28;20276;-81
2022/04/14 08:45:07;;;;;;;7.38;4.57;;;;;;;;;;5112152;28;20268;-81
2022/04/14 08:47:36;;;;;;;6.18;4.13;;;;;;;;;;5111939;28;20198;-81
2022/04/14 08:50:04;;;;;;;6.82;4.20;;;;;;;;;;5112347;28;20235;-80
2022/04/14 08:52:33;;;;;;;6.95;4.45;;;;;;;;;;5127296;28;20203;-81
2022/04/14 08:55:01;;;;;;;6.85;4.00;;;;;;;;;;5117787;28;20217;-81
2022/04/14 08:57:28;;;;;;;7.47;3.70;;;;;;;;;;5120507;28;20202;-81
2022/04/14 08:59:56;;;;;;;4.30;3.13;;;;;;;;;;5121810;28;20225;-81
2022/04/14 09:02:23;;;;;;;4.97;3.00;;;;;;;;;;5123197;28;20542;-81
2022/04/14 09:04:50;;;;;;;3.30;2.47;;;;;;;;;;5130628;28;20268;-81
2022/04/14 09:07:18;;;;;;;3.60;2.78;;;;;;;;;;5131691;28;20232;-81
2022/04/14 09:09:47;;;;;;;3.80;2.10;;;;;;;;;;5121989;28;20285;-81
2022/04/14 09:12:15;;;;;;;6.20;3.28;;;;;;;;;;5125317;28;20198;-81
2022/04/14 09:14:42;;;;;;;4.13;2.53;;;;;;;;;;5119699;28;20291;-81
2022/04/14 09:17:09;;;;;;;4.68;2.40;;;;;;;;;;5120055;28;20202;-81
2022/04/14 09:19:37;;;;;;;3.90;2.50;;;;;;;;;;5123188;27;20283;-81
2022/04/14 09:22:07;;;;;;;3.35;2.40;;;;;;;;;;5129016;27;20228;-82
2022/04/14 09:24:41;;;;;;;3.55;2.30;;;;;;;;;;5123874;27;20201;-81
2022/04/14 09:27:11;;;;;;;3.30;2.10;;;;;;;;;;5117694;27;20234;-82
2022/04/14 09:29:48;;;;;;;5.05;2.30;;;;;;;;;;5126618;27;20661;-81
2022/04/14 09:32:27;;;;;;;4.13;2.10;;;;;;;;;;5121133;27;20196;-81
2022/04/14 09:34:54;;;;;;;3.78;2.30;;;;;;;;;;5115600;27;20237;-81
2022/04/14 09:37:24;;;;;;;3.50;2.03;;;;;;;;;;5126741;27;20629;-81
2022/04/14 09:39:53;;;;;;;2.67;1.95;;;;;;;;;;5131666;27;20197;-81
2022/04/14 09:42:23;;;;;;;4.47;2.10;;;;;;;;;;5115795;27;20649;-81
2022/04/14 09:44:51;;;;;;;3.47;1.90;;;;;;;;;;5130276;27;20276;-82
2022/04/14 09:47:39;;;;;;;2.33;1.80;;;;;;;;;;5127705;27;20197;-81
2022/04/14 09:50:07;;;;;;;3.63;1.90;;;;;;;;;;5123795;27;20672;-82
2022/04/14 09:52:34;;;;;;;6.70;2.17;;;;;;;;;;5126210;27;20276;-80
2022/04/14 09:55:08;;;;;;;4.57;2.10;;;;;;;;;;5122108;27;20300;-81
2022/04/14 09:57:37;;;;;;;3.10;2.13;;;;;;;;;;5128283;27;20193;-82
2022/04/14 10:00:05;;;;;;;2.53;2.03;;;;;;;;;;5123171;27;20221;-81
2022/04/14 10:02:35;;;;;;;3.53;2.22;;;;;;;;;;5122829;27;20201;-82
2022/04/14 10:05:05;;;;;;;2.95;1.90;;;;;;;;;;5125618;27;20196;-81
2022/04/14 10:07:33;;;;;;;3.13;1.80;;;;;;;;;;5120279;27;20201;-82
2022/04/14 10:10:00;;;;;;;3.25;2.00;;;;;;;;;;5117625;27;20240;-81
2022/04/14 10:12:29;;;;;;;4.60;1.77;;;;;;;;;;5124734;27;20197;-81
2022/04/14 10:15:02;;;;;;;2.90;1.67;;;;;;;;;;5125082;27;20731;-81
2022/04/14 10:17:31;;;;;;;2.85;1.88;;;;;;;;;;5126562;27;20217;-82
2022/04/14 10:19:58;;;;;;;3.42;2.05;;;;;;;;;;5120326;27;20293;-82
2022/04/14 10:22:26;;;;;;;3.88;2.13;;;;;;;;;;5116758;27;20221;-82
2022/04/14 10:24:54;;;;;;;2.85;1.98;;;;;;;;;;5120902;27;20190;-82
2022/04/14 10:27:22;;;;;;;2.70;1.80;;;;;;;;;;5119414;27;20204;-82
2022/04/14 10:29:50;;;;;;;3.40;2.00;;;;;;;;;;5118859;27;20202;-82
2022/04/14 10:32:18;;;;;;;2.63;1.65;;;;;;;;;;5123736;27;20676;-81
2022/04/14 10:34:46;;;;;;;3.70;2.25;;;;;;;;;;5118491;27;20629;-82
2022/04/14 10:37:16;;;;;;;3.50;2.20;;;;;;;;;;5120381;27;20205;-82
2022/04/14 10:39:45;;;;;;;2.75;1.73;;;;;;;;;;5127340;27;20193;-82
2022/04/14 10:42:12;;;;;;;2.30;1.58;;;;;;;;;;5116607;27;20229;-80
2022/04/14 10:44:46;;;;;;;2.78;1.80;;;;;;;;;;5118038;27;20591;-82
2022/04/14 10:47:14;;;;;;;2.92;1.83;;;;;;;;;;5126018;27;20267;-82
2022/04/14 10:49:42;;;;;;;3.80;1.90;;;;;;;;;;5116941;27;20288;-82
2022/04/14 10:52:24;;;;;;;4.75;2.00;;;;;;;;;;5122802;27;20201;-81
2022/04/14 10:54:58;;;;;;;5.68;2.40;;;;;;;;;;5124500;27;20213;-81
2022/04/14 10:57:40;;;;;;;3.03;2.03;;;;;;;;;;5116937;27;20194;-82
2022/04/14 11:00:26;;;;;;;3.50;2.00;;;;;;;;;;5112835;27;21238;-82
2022/04/14 11:03:14;;;;;;;4.30;2.17;;;;;;;;;;5112982;27;20306;-81
2022/04/14 11:05:44;;;;;;;3.63;2.25;;;;;;;;;;5119904;27;20193;-81
2022/04/14 11:08:24;;;;;;;3.70;1.98;;;;;;;;;;5128967;27;20288;-82
2022/04/14 11:10:55;;;;;;;3.42;1.92;;;;;;;;;;5112817;27;20231;-82
2022/04/14 11:13:22;;;;;;;3.97;1.90;;;;;;;;;;5120178;27;20331;-82
2022/04/14 11:15:50;;;;;;;3.72;1.95;;;;;;;;;;5125786;27;20248;-81
2022/04/14 11:18:17;;;;;;;3.42;2.00;;;;;;;;;;5122543;27;20676;-81
2022/04/14 11:20:57;;;;;;;2.97;2.00;;;;;;;;;;5113468;27;20233;-82
2022/04/14 11:23:26;;;;;;;3.47;2.03;;;;;;;;;;5117855;27;20212;-81
2022/04/14 11:25:54;;;;;;;3.20;2.03;;;;;;;;;;5118895;27;20189;-81
2022/04/14 11:28:24;;;;;;;3.53;1.83;;;;;;;;;;5118900;27;20220;-81
2022/04/14 11:30:52;;;;;;;3.63;2.00;;;;;;;;;;5130989;27;20204;-81
2022/04/14 11:33:25;;;;;;;3.60;1.98;;;;;;;;;;5113542;27;20292;-81
2022/04/14 11:35:52;;;;;;;3.90;1.95;;;;;;;;;;5127525;27;20319;-81
2022/04/14 11:38:38;;;;;;;4.97;2.20;;;;;;;;;;5124125;27;20205;-80
2022/04/14 11:41:07;;;;;;;1.98;1.63;;;;;;;;;;5117966;27;20232;-80
2022/04/14 11:43:36;;;;;;;4.00;2.22;;;;;;;;;;5123047;27;20225;-81
2022/04/14 11:46:05;;;;;;;3.90;1.85;;;;;;;;;;5114831;27;20189;-80
2022/04/14 11:48:32;;;;;;;5.50;2.17;;;;;;;;;;5127919;27;20205;-80
2022/04/14 11:50:59;;;;;;;2.65;2.00;;;;;;;;;;5128538;27;20228;-79
2022/04/14 11:53:30;;;;;;;3.28;1.92;;;;;;;;;;5122924;27;20193;-80
2022/04/14 11:55:57;;;;;;;2.78;2.15;;;;;;;;;;5119542;27;20223;-80
2022/04/14 11:58:45;;;;;;;4.10;2.05;;;;;;;;;;5131619;27;20324;-81
2022/04/14 12:01:14;;;;;;;3.50;1.88;;;;;;;;;;5121737;27;20201;-80
2022/04/14 12:06:58;;;;;;;3.05;2.03;;;;;;;;;;5032339;28;20321;-79
2022/04/14 12:09:25;;;;;;;3.38;1.98;;;;;;;;;;5123588;28;20198;-80
2022/04/14 12:11:53;;;;;;;4.47;1.92;;;;;;;;;;5124385;27;20252;-80
2022/04/14 12:14:21;;;;;;;4.65;2.22;;;;;;;;;;5126779;28;20270;-79
2022/04/14 12:16:50;;;;;;;3.20;2.00;;;;;;;;;;5121503;28;20267;-80
2022/04/14 12:19:17;;;;;;;3.35;1.98;;;;;;;;;;5119891;28;20227;-79
2022/04/14 12:21:45;;;;;;;9.63;1.95;;;;;;;;;;5117175;28;20254;-80
2022/04/14 12:24:12;;;;;;;3.10;1.85;;;;;;;;;;5126626;28;20224;-79
2022/04/14 12:26:40;;;;;;;6.10;2.30;;;;;;;;;;5118388;28;20204;-79
2022/04/14 12:29:12;;;;;;;5.40;2.15;;;;;;;;;;5132260;28;20689;-80
2022/04/14 12:31:43;;;;;;;4.90;2.45;;;;;;;;;;5128575;28;20295;-79
2022/04/14 12:37:11;;;;;;;3.83;1.80;;;;;;;;;;5115958;28;20225;-79
2022/04/14 12:39:38;;;;;;;4.18;2.17;;;;;;;;;;5100563;28;20200;-79
2022/04/14 12:42:20;;;;;;;3.10;1.73;;;;;;;;;;5125825;28;20287;-79
2022/04/14 12:44:48;;;;;;;2.90;1.50;;;;;;;;;;5121758;28;20327;-80
2022/04/14 12:47:16;;;;;;;2.75;1.70;;;;;;;;;;5130161;28;20221;-80
2022/04/14 12:49:43;;;;;;;3.50;1.75;;;;;;;;;;5121269;28;20761;-80
2022/04/14 12:52:19;;;;;;;4.57;1.80;;;;;;;;;;5121880;28;20280;-80
2022/04/14 12:54:47;;;;;;;4.07;1.67;;;;;;;;;;5132136;27;20565;-80
2022/04/14 12:57:19;;;;;;;3.53;1.70;;;;;;;;;;5124978;27;20245;-80
2022/04/14 13:00:02;;;;;;;2.03;1.40;;;;;;;;;;5122825;27;20276;-80
2022/04/14 13:02:29;;;;;;;3.08;1.55;;;;;;;;;;5132374;27;20204;-79
2022/04/14 13:05:07;;;;;;;2.90;1.80;;;;;;;;;;5121685;27;20288;-80
2022/04/14 13:07:47;;;;;;;2.70;1.63;;;;;;;;;;5127675;27;20694;-79
2022/04/14 13:10:15;;;;;;;2.58;1.40;;;;;;;;;;5122998;27;20205;-80
2022/04/14 13:12:43;;;;;;;3.15;1.60;;;;;;;;;;5124171;27;20240;-80
2022/04/14 13:15:11;;;;;;;3.67;1.83;;;;;;;;;;5123458;27;20233;-80
2022/04/14 13:17:38;;;;;;;4.40;1.50;;;;;;;;;;5122450;27;20208;-81
2022/04/14 13:20:10;;;;;;;3.97;1.58;;;;;;;;;;5126696;27;20649;-81
2022/04/14 13:23:02;;;;;;;2.00;1.50;;;;;;;;;;5124034;27;20213;-82
2022/04/14 13:28:30;;;;;;;2.33;1.33;;;;;;;;;;5047002;28;20321;-82
2022/04/14 13:30:57;;;;;;;6.47;1.80;;;;;;;;;;5127728;27;20337;-81
2022/04/14 13:33:24;;;;;;;2.25;1.40;;;;;;;;;;5131336;27;20245;-82
2022/04/14 13:35:52;;;;;;;3.05;1.40;;;;;;;;;;5127186;27;20216;-81
2022/04/14 13:38:19;;;;;;;2.63;1.40;;;;;;;;;;5123142;27;20254;-82
2022/04/14 13:40:46;;;;;;;3.40;1.40;;;;;;;;;;5121595;27;20229;-81
2022/04/14 13:43:14;;;;;;;3.45;1.50;;;;;;;;;;5123878;27;20206;-81
2022/04/14 13:45:42;;;;;;;4.03;1.70;;;;;;;;;;5122021;27;20204;-81
2022/04/14 13:48:10;;;;;;;2.42;1.67;;;;;;;;;;5136271;27;20231;-81
2022/04/14 13:50:39;;;;;;;2.95;1.58;;;;;;;;;;5129423;27;20197;-81
2022/04/14 13:54:01;;;;;;;;;;;;;;;;;;;;;
2022/04/14 13:59:44;;;;;;;5.80;1.77;;;;;;;;;;5008834;28;20254;-81
2022/04/14 14:05:25;;;;;;;3.92;1.75;;;;;;;;;;5021485;28;20240;-81
2022/04/14 14:07:56;;;;;;;2.85;1.70;;;;;;;;;;5022883;28;20292;-81
2022/04/14 14:10:23;;;;;;;1.42;1.23;;;;;;;;;;5034727;28;20201;-83
2022/04/14 14:12:51;;;;;;;7.93;1.67;;;;;;;;;;5025455;28;20287;-80
2022/04/14 14:15:18;;;;;;;3.08;1.60;;;;;;;;;;5020013;28;20236;-80
2022/04/14 14:17:45;;;;;;;3.92;1.70;;;;;;;;;;5011691;28;20256;-80
2022/04/14 14:20:13;;;;;;;2.95;1.60;;;;;;;;;;5012418;28;20296;-79
2022/04/14 14:22:45;;;;;;;2.92;1.70;;;;;;;;;;5030486;28;20606;-80
2022/04/14 14:25:12;;;;;;;2.75;1.67;;;;;;;;;;5014812;28;20205;-80
2022/04/14 14:27:40;;;;;;;3.72;1.70;;;;;;;;;;5019039;28;20243;-79
2022/04/14 14:30:10;;;;;;;2.63;1.50;;;;;;;;;;5012868;28;20304;-80
2022/04/14 14:32:38;;;;;;;2.13;1.55;;;;;;;;;;5053932;27;20193;-80
2022/04/14 14:35:06;;;;;;;2.55;1.55;;;;;;;;;;5118545;27;20204;-81
2022/04/14 14:37:33;;;;;;;2.42;1.60;;;;;;;;;;5120623;27;20210;-81
2022/04/14 14:40:02;;;;;;;2.70;1.48;;;;;;;;;;5127417;27;20251;-81
2022/04/14 14:42:31;;;;;;;2.55;1.40;;;;;;;;;;5122248;27;20665;-80
2022/04/14 14:44:58;;;;;;;3.65;1.58;;;;;;;;;;5132473;27;20287;-80
2022/04/14 14:47:25;;;;;;;3.13;1.48;;;;;;;;;;5122240;27;20219;-81
2022/04/14 14:49:52;;;;;;;2.47;1.50;;;;;;;;;;5123258;27;20224;-81
2022/04/14 14:52:19;;;;;;;1.85;1.40;;;;;;;;;;5129148;27;20197;-81
2022/04/14 14:54:47;;;;;;;2.60;1.20;;;;;;;;;;5129497;27;20221;-80
2022/04/14 14:57:16;;;;;;;2.35;1.27;;;;;;;;;;5132455;27;20297;-80
2022/04/14 14:59:42;;;;;;;2.45;1.27;;;;;;;;;;5119659;27;20305;-80
2022/04/14 15:02:11;;;;;;;2.65;1.30;;;;;;;;;;5097695;27;20201;-81
2022/04/14 15:04:38;;;;;;;3.92;1.20;;;;;;;;;;5120000;27;20231;-80